createdAt,value
2019-01-22T00:01:20.990Z,100707.72
2019-01-22T00:03:52.457Z,100709.02
2019-01-22T00:06:24.054Z,100707.41
2019-01-22T00:08:55.415Z,100707.95
2019-01-22T00:11:26.929Z,100702.45
2019-01-22T00:13:58.498Z,100699.35
2019-01-22T00:16:29.898Z,100700.38
2019-01-22T00:19:01.277Z,100696.09
2019-01-22T00:21:32.736Z,100694.87
2019-01-22T00:24:04.467Z,100693.85
2019-01-22T00:26:35.942Z,100694.78
2019-01-22T00:29:07.719Z,100694.56
2019-01-22T00:31:39.213Z,100692.41
2019-01-22T00:34:10.511Z,100697.58
2019-01-22T00:36:42.027Z,100688.33
2019-01-22T00:39:13.447Z,100693.09
2019-01-22T00:41:44.916Z,100689.73
2019-01-22T00:44:16.369Z,100683.72
2019-01-22T00:46:47.761Z,100688.35
2019-01-22T00:49:19.061Z,100684.61
2019-01-22T00:51:51.167Z,100684.91
2019-01-22T00:54:22.627Z,100678.16
2019-01-22T00:56:53.959Z,100672.23
2019-01-22T00:59:25.497Z,100666.33
2019-01-22T01:01:57.049Z,100652.75
2019-01-22T01:04:28.429Z,100652.09
2019-01-22T01:07:00.020Z,100652.64
2019-01-22T01:09:31.482Z,100648.66
2019-01-22T01:12:02.876Z,100646.50
2019-01-22T01:14:34.260Z,100644.19
2019-01-22T01:17:05.901Z,100641.64
2019-01-22T01:19:37.268Z,100633.71
2019-01-22T01:22:08.784Z,100632.95
2019-01-22T01:24:40.077Z,100631.81
2019-01-22T01:27:12.130Z,100640.79
2019-01-22T01:29:43.442Z,100627.94
2019-01-22T01:32:14.791Z,100625.25
2019-01-22T01:34:46.180Z,100621.81
2019-01-22T01:37:17.560Z,100622.61
2019-01-22T01:39:49.126Z,100613.63
2019-01-22T01:42:20.465Z,100605.94
2019-01-22T01:44:51.808Z,100602.98
2019-01-22T01:47:23.152Z,100601.34
2019-01-22T01:49:54.464Z,100603.63
2019-01-22T01:52:25.816Z,100601.34
2019-01-22T01:54:57.199Z,100598.88
2019-01-22T01:57:28.620Z,100596.19
2019-01-22T01:59:59.975Z,100590.78
2019-01-22T02:02:31.524Z,100584.84
2019-01-22T02:05:02.831Z,100581.32
2019-01-22T02:07:34.315Z,100577.03
2019-01-22T02:10:12.812Z,100579.20
2019-01-22T02:13:07.171Z,100568.66
2019-01-22T02:16:04.544Z,100560.45
2019-01-22T02:18:52.732Z,100559.37
2019-01-22T02:21:34.507Z,100559.95
2019-01-22T02:24:26.103Z,100560.72
2019-01-22T02:27:02.192Z,100550.97
2019-01-22T02:30:07.178Z,100550.48
2019-01-22T02:33:22.168Z,100544.05
2019-01-22T02:36:25.474Z,100540.20
2019-01-22T02:39:48.504Z,100539.02
2019-01-22T02:42:36.741Z,100530.31
2019-01-22T02:45:24.229Z,100519.40
2019-01-22T02:48:02.983Z,100509.78
2019-01-22T02:51:00.039Z,100507.98
2019-01-22T02:53:38.877Z,100504.27
2019-01-22T02:56:38.232Z,100498.64
2019-01-22T02:59:22.582Z,100503.52
2019-01-22T03:02:01.355Z,100494.51
2019-01-22T03:04:46.351Z,100489.88
2019-01-22T03:07:31.291Z,100482.27
2019-01-22T03:10:19.533Z,100485.43
2019-01-22T03:13:13.192Z,100488.48
2019-01-22T03:16:24.023Z,100484.80
2019-01-22T03:19:08.973Z,100482.73
2019-01-22T03:21:59.274Z,100480.22
2019-01-22T03:24:49.915Z,100473.56
2019-01-22T03:27:28.702Z,100471.77
2019-01-22T03:30:30.351Z,100456.88
2019-01-22T03:33:19.732Z,100452.25
2019-01-22T03:36:01.826Z,100446.09
2019-01-22T03:39:03.411Z,100441.61
2019-01-22T03:42:14.204Z,100441.87
2019-01-22T03:45:08.420Z,100435.47
2019-01-22T03:48:05.502Z,100440.61
2019-01-22T03:51:08.621Z,100438.04
2019-01-22T03:54:08.023Z,100438.48
2019-01-22T03:57:20.211Z,100441.31
2019-01-22T03:59:51.662Z,100439.63
2019-01-22T04:02:24.677Z,100443.11
2019-01-22T04:04:56.064Z,100447.20
2019-01-22T04:07:27.785Z,100437.45
2019-01-22T04:10:00.719Z,100442.34
2019-01-22T04:12:46.478Z,100443.25
2019-01-22T04:15:22.980Z,100436.08
2019-01-22T04:17:54.477Z,100424.66
2019-01-22T04:20:25.971Z,100423.99
2019-01-22T04:22:58.084Z,100420.67
2019-01-22T04:25:42.723Z,100421.30
2019-01-22T04:28:42.923Z,100412.97
2019-01-22T04:31:21.690Z,100411.19
2019-01-22T04:34:32.536Z,100407.36
2019-01-22T04:37:30.930Z,100409.69
2019-01-22T04:40:34.014Z,100407.01
2019-01-22T04:43:35.773Z,100402.52
2019-01-22T04:46:33.536Z,100400.59
2019-01-22T04:49:15.365Z,100400.58
2019-01-22T04:52:12.043Z,100390.18
2019-01-22T04:55:11.688Z,100388.88
2019-01-22T04:57:50.662Z,100381.70
2019-01-22T05:00:47.784Z,100376.30
2019-01-22T05:03:38.535Z,100368.07
2019-01-22T05:06:23.557Z,100362.29
2019-01-22T05:09:13.195Z,100357.66
2019-01-22T05:12:09.907Z,100353.81
2019-01-22T05:15:09.747Z,100350.72
2019-01-22T05:17:54.455Z,100361.26
2019-01-22T05:20:30.500Z,100355.33
2019-01-22T05:23:09.165Z,100353.00
2019-01-22T05:26:00.387Z,100348.50
2019-01-22T05:28:57.499Z,100343.22
2019-01-22T05:31:42.376Z,100343.46
2019-01-22T05:34:41.784Z,100337.28
2019-01-22T05:37:26.502Z,100334.30
2019-01-22T05:40:20.426Z,100335.28
2019-01-22T05:43:14.193Z,100337.81
2019-01-22T05:45:59.242Z,100336.89
2019-01-22T05:49:10.217Z,100334.91
2019-01-22T05:51:57.910Z,100332.55
2019-01-22T05:54:42.612Z,100335.55
2019-01-22T05:57:16.268Z,100327.76
2019-01-22T06:00:04.572Z,100320.12
2019-01-22T06:02:40.682Z,100324.67
2019-01-22T06:05:41.982Z,100312.89
2019-01-22T06:08:26.778Z,100309.22
2019-01-22T06:11:29.720Z,100303.98
2019-01-22T06:14:31.447Z,100297.14
2019-01-22T06:17:22.255Z,100292.22
2019-01-22T06:20:19.019Z,100286.84
2019-01-22T06:23:11.736Z,100277.78
2019-01-22T06:25:59.600Z,100284.87
2019-01-22T06:28:47.178Z,100278.48
2019-01-22T06:31:37.875Z,100280.44
2019-01-22T06:34:33.486Z,100273.44
2019-01-22T06:37:12.270Z,100283.63
2019-01-22T06:39:59.720Z,100280.20
2019-01-22T06:42:41.072Z,100276.77
2019-01-22T06:45:51.490Z,100269.98
2019-01-22T06:48:48.638Z,100263.46
2019-01-22T06:51:54.810Z,100269.36
2019-01-22T06:55:04.258Z,100274.58
2019-01-22T06:58:11.680Z,100268.84
2019-01-22T07:00:53.383Z,100260.53
2019-01-22T07:03:44.406Z,100260.06
2019-01-22T07:06:39.796Z,100261.66
2019-01-22T07:09:38.739Z,100249.66
2019-01-22T07:12:32.159Z,100253.38
2019-01-22T07:15:59.584Z,100236.91
2019-01-22T07:18:44.420Z,100244.48
2019-01-22T07:21:39.731Z,100238.81
2019-01-22T07:24:37.955Z,100233.84
2019-01-22T07:27:28.906Z,100239.08
2019-01-22T07:30:42.990Z,100236.13
2019-01-22T07:33:44.555Z,100226.51
2019-01-22T07:36:41.832Z,100228.59
2019-01-22T07:39:26.499Z,100229.30
2019-01-22T07:42:11.170Z,100234.05
2019-01-22T07:44:58.934Z,100231.29
2019-01-22T07:47:34.928Z,100227.05
2019-01-22T07:50:31.748Z,100231.70
2019-01-22T07:53:13.869Z,100225.42
2019-01-22T07:56:12.350Z,100233.39
2019-01-22T07:58:48.462Z,100223.89
2019-01-22T08:01:39.432Z,100225.02
2019-01-22T08:04:49.188Z,100217.41
2019-01-22T08:07:49.561Z,100214.06
2019-01-22T08:10:42.941Z,100204.06
2019-01-22T08:13:53.535Z,100204.86
2019-01-22T08:16:49.972Z,100195.53
2019-01-22T08:19:46.950Z,100192.86
2019-01-22T08:22:58.652Z,100181.15
2019-01-22T08:25:45.874Z,100191.87
2019-01-22T08:28:30.961Z,100185.91
2019-01-22T08:31:18.778Z,100189.98
2019-01-22T08:34:12.670Z,100190.77
2019-01-22T08:37:14.274Z,100182.02
2019-01-22T08:40:02.344Z,100183.91
2019-01-22T08:43:13.289Z,100176.66
2019-01-22T08:45:58.059Z,100176.66
2019-01-22T08:48:49.409Z,100168.61
2019-01-22T08:51:45.044Z,100171.77
2019-01-22T08:54:46.169Z,100168.69
2019-01-22T08:57:24.576Z,100168.38
2019-01-22T09:00:17.047Z,100162.88
2019-01-22T09:03:27.654Z,100165.77
2019-01-22T09:06:24.716Z,100162.13
2019-01-22T09:09:30.127Z,100159.25
2019-01-22T09:12:34.670Z,100158.45
2019-01-22T09:15:37.455Z,100149.59
2019-01-22T09:18:25.520Z,100151.68
2019-01-22T09:21:10.412Z,100146.61
2019-01-22T09:23:53.361Z,100132.41
2019-01-22T09:26:44.119Z,100137.38
2019-01-22T09:29:28.420Z,100132.59
2019-01-22T09:32:10.439Z,100129.89
2019-01-22T09:35:01.625Z,100126.09
2019-01-22T09:37:34.601Z,100120.84
2019-01-22T09:40:09.951Z,100111.18
2019-01-22T09:42:41.303Z,100110.53
2019-01-22T09:45:12.900Z,100104.84
2019-01-22T09:47:44.361Z,100095.89
2019-01-22T09:50:15.959Z,100100.44
2019-01-22T09:52:48.500Z,100092.50
2019-01-22T09:55:22.451Z,100085.29
2019-01-22T09:57:53.064Z,100094.20
2019-01-22T10:00:24.862Z,100089.13
2019-01-22T10:02:56.376Z,100088.81
2019-01-22T10:05:28.827Z,100090.06
2019-01-22T10:08:00.311Z,100084.41
2019-01-22T10:10:31.970Z,100078.66
2019-01-22T10:13:03.472Z,100073.89
2019-01-22T10:15:35.085Z,100076.70
2019-01-22T10:18:06.789Z,100072.73
2019-01-22T10:20:38.516Z,100072.50
2019-01-22T10:23:10.986Z,100068.41
2019-01-22T10:25:42.462Z,100060.83
2019-01-22T10:28:13.834Z,100059.22
2019-01-22T10:30:45.241Z,100047.77
2019-01-22T10:33:16.614Z,100049.14
2019-01-22T10:35:48.134Z,100041.08
2019-01-22T10:38:19.515Z,100046.42
2019-01-22T10:40:51.310Z,100042.45
2019-01-22T10:43:22.672Z,100035.36
2019-01-22T10:45:54.089Z,100031.34
2019-01-22T10:48:25.532Z,100032.41
2019-01-22T10:50:56.978Z,100028.70
2019-01-22T10:57:02.938Z,100021.77
2019-01-22T10:59:34.389Z,100015.50
2019-01-22T11:02:06.056Z,100013.73
2019-01-22T11:04:43.423Z,100009.53
2019-01-22T11:07:16.260Z,100007.75
2019-01-22T11:09:47.931Z,99997.81
2019-01-22T11:12:24.287Z,99984.80
2019-01-22T11:14:55.606Z,99980.75
2019-01-22T11:17:26.903Z,99978.97
2019-01-22T11:19:58.326Z,99970.89
2019-01-22T11:22:29.944Z,99961.92
2019-01-22T11:25:07.068Z,99956.73
2019-01-22T11:27:38.431Z,99952.54
2019-01-22T11:30:17.432Z,99941.38
2019-01-22T11:32:50.326Z,99934.10
2019-01-22T11:35:24.567Z,99931.44
2019-01-22T11:37:55.971Z,99926.70
2019-01-22T11:40:34.178Z,99915.69
2019-01-22T11:43:05.729Z,99910.34
2019-01-22T11:45:37.224Z,99908.32
2019-01-22T11:48:10.757Z,99902.09
2019-01-22T11:50:42.138Z,99901.35
2019-01-22T11:53:13.511Z,99895.34
2019-01-22T11:55:50.472Z,99888.47
2019-01-22T11:58:20.169Z,99887.17
2019-01-22T12:00:53.123Z,99878.11
2019-01-22T12:03:26.116Z,99873.01
2019-01-22T12:05:57.503Z,99872.25
2019-01-22T12:08:29.478Z,99868.03
2019-01-22T12:11:01.199Z,99860.52
2019-01-22T12:13:32.752Z,99854.75
2019-01-22T12:16:04.275Z,99852.23
2019-01-22T12:18:36.433Z,99841.95
2019-01-22T12:21:08.086Z,99839.44
2019-01-22T12:23:39.708Z,99824.92
2019-01-22T12:26:13.274Z,99815.27
2019-01-22T12:28:47.419Z,99818.75
2019-01-22T12:31:30.097Z,99817.45
2019-01-22T12:34:12.430Z,99801.35
2019-01-22T12:38:46.662Z,99785.14
2019-01-22T12:58:20.790Z,99743.70
2019-01-22T13:00:52.724Z,99739.19
2019-01-22T13:03:27.050Z,99728.53
2019-01-22T13:06:04.970Z,99724.09
2019-01-22T13:08:38.658Z,99720.48
2019-01-22T13:11:12.409Z,99716.04
2019-01-22T13:13:56.626Z,99711.20
2019-01-22T13:16:31.660Z,99704.72
2019-01-22T13:19:04.493Z,99702.67
2019-01-22T13:21:40.359Z,99698.58
2019-01-22T13:24:12.257Z,99692.72
2019-01-22T13:26:49.483Z,99681.12
2019-01-22T13:29:21.939Z,99686.44
2019-01-22T13:31:54.452Z,99674.30
2019-01-22T13:34:28.527Z,99670.06
2019-01-22T13:37:00.219Z,99666.31
2019-01-22T13:39:32.349Z,99663.30
2019-01-22T13:42:04.205Z,99650.75
2019-01-22T13:44:38.298Z,99649.59
2019-01-22T13:47:29.514Z,99640.71
2019-01-22T13:50:02.036Z,99637.02
2019-01-22T13:52:35.256Z,99635.66
2019-01-22T13:55:11.606Z,99628.56
2019-01-22T13:57:47.731Z,99627.81
2019-01-22T14:00:26.910Z,99623.77
2019-01-22T14:03:00.794Z,99621.06
2019-01-22T14:05:32.426Z,99616.42
2019-01-22T14:08:05.473Z,99616.42
2019-01-22T14:10:38.464Z,99612.18
2019-01-22T14:13:09.874Z,99603.45
2019-01-22T14:15:42.305Z,99602.22
2019-01-22T14:18:15.397Z,99602.81
2019-01-22T14:20:46.987Z,99597.16
2019-01-22T14:23:18.454Z,99595.86
2019-01-22T14:25:50.046Z,99591.97
2019-01-22T14:28:21.569Z,99589.31
2019-01-22T14:30:53.162Z,99586.71
2019-01-22T14:33:24.849Z,99588.08
2019-01-22T14:35:56.497Z,99586.24
2019-01-22T14:38:29.707Z,99583.23
2019-01-22T14:41:03.958Z,99583.17
2019-01-22T14:43:38.730Z,99575.67
2019-01-22T14:46:10.405Z,99573.68
2019-01-22T14:48:43.343Z,99573.68
2019-01-22T14:51:15.246Z,99572.16
2019-01-22T14:53:49.949Z,99561.09
2019-01-22T14:56:21.535Z,99562.32
2019-01-22T14:58:54.928Z,99553.66
2019-01-22T15:01:27.827Z,99540.80
2019-01-22T15:03:59.636Z,99542.52
2019-01-22T15:06:33.363Z,99548.11
2019-01-22T15:09:06.731Z,99535.02
2019-01-22T15:11:38.255Z,99537.97
2019-01-22T15:14:09.684Z,99532.23
2019-01-22T15:16:41.011Z,99534.83
2019-01-22T15:19:12.601Z,99534.77
2019-01-22T15:21:43.940Z,99524.99
2019-01-22T15:24:15.338Z,99529.83
2019-01-22T15:26:46.670Z,99519.39
2019-01-22T15:29:17.986Z,99513.73
2019-01-22T15:31:49.282Z,99516.67
2019-01-22T15:34:20.666Z,99511.55
2019-01-22T15:36:53.296Z,99507.19
2019-01-22T15:39:24.716Z,99502.53
2019-01-22T15:41:56.015Z,99499.05
2019-01-22T15:44:27.652Z,99499.41
2019-01-22T15:46:59.168Z,99501.36
2019-01-22T15:49:30.629Z,99496.70
2019-01-22T15:52:01.899Z,99490.09
2019-01-22T15:54:33.449Z,99487.97
2019-01-22T15:57:04.797Z,99480.73
2019-01-22T15:59:36.221Z,99479.48
2019-01-22T16:02:07.912Z,99475.84
2019-01-22T16:04:39.529Z,99482.27
2019-01-22T16:07:11.191Z,99477.55
2019-01-22T16:09:42.706Z,99478.31
2019-01-22T16:12:14.064Z,99479.09
2019-01-22T16:14:45.579Z,99472.83
2019-01-22T16:17:18.663Z,99472.36
2019-01-22T16:19:50.069Z,99473.36
2019-01-22T16:22:21.487Z,99472.59
2019-01-22T16:24:53.313Z,99467.87
2019-01-22T16:27:27.940Z,99469.77
2019-01-22T16:29:59.652Z,99471.59
2019-01-22T16:32:31.120Z,99466.11
2019-01-22T16:35:02.920Z,99460.98
2019-01-22T16:37:34.583Z,99459.80
2019-01-22T16:40:13.463Z,99455.73
2019-01-22T16:42:46.150Z,99450.36
2019-01-22T16:45:27.750Z,99453.13
2019-01-22T16:47:59.537Z,99449.95
2019-01-22T16:50:33.751Z,99447.23
2019-01-22T16:53:07.596Z,99446.28
2019-01-22T16:55:41.197Z,99440.03
2019-01-22T16:58:12.954Z,99437.09
2019-01-22T17:00:44.637Z,99437.91
2019-01-22T17:03:16.301Z,99433.24
2019-01-22T17:05:56.287Z,99435.13
2019-01-22T17:08:27.577Z,99432.31
2019-01-22T17:10:58.848Z,99427.00
2019-01-22T17:13:32.477Z,99430.89
2019-01-22T17:20:25.963Z,99417.09
2019-01-22T17:23:01.925Z,99408.84
2019-01-22T17:25:31.118Z,99403.24
2019-01-22T17:28:02.630Z,99399.70
2019-01-22T17:30:34.125Z,99395.28
2019-01-22T17:33:12.584Z,99390.33
2019-01-22T17:35:43.743Z,99385.14
2019-01-22T17:38:15.606Z,99385.97
2019-01-22T17:40:49.884Z,99383.84
2019-01-22T17:43:21.487Z,99383.31
2019-01-22T17:45:53.253Z,99378.84
2019-01-22T17:48:24.799Z,99375.24
2019-01-22T17:50:56.321Z,99369.17
2019-01-22T17:53:27.761Z,99365.92
2019-01-22T17:56:01.545Z,99356.14
2019-01-22T17:58:38.940Z,99353.78
2019-01-22T18:01:14.761Z,99354.97
2019-01-22T18:03:50.910Z,99350.25
2019-01-22T18:06:22.624Z,99351.48
2019-01-22T18:08:54.182Z,99356.38
2019-01-22T18:11:29.894Z,99343.76
2019-01-22T18:14:03.272Z,99337.32
2019-01-22T18:16:35.174Z,99331.84
2019-01-22T18:19:06.884Z,99331.97
2019-01-22T18:21:42.393Z,99328.25
2019-01-22T18:24:15.594Z,99328.14
2019-01-22T18:26:47.082Z,99327.38
2019-01-22T18:29:18.822Z,99321.68
2019-01-22T18:31:51.977Z,99320.94
2019-01-22T18:34:23.435Z,99321.71
2019-01-22T18:36:54.948Z,99320.95
2019-01-22T18:39:26.716Z,99324.96
2019-01-22T18:41:58.213Z,99315.41
2019-01-22T18:44:35.584Z,99312.69
2019-01-22T18:47:14.549Z,99307.52
2019-01-22T18:49:47.667Z,99305.09
2019-01-22T18:52:19.446Z,99305.27
2019-01-22T18:54:55.398Z,99303.98
2019-01-22T18:57:27.575Z,99298.80
2019-01-22T18:59:59.154Z,99295.11
2019-01-22T19:02:32.296Z,99297.12
2019-01-22T19:05:04.546Z,99295.38
2019-01-22T19:07:36.683Z,99292.70
2019-01-22T19:10:21.146Z,99288.23
2019-01-22T19:12:54.145Z,99289.92
2019-01-22T19:15:28.605Z,99284.73
2019-01-22T19:18:04.517Z,99287.81
2019-01-22T19:20:39.202Z,99284.95
2019-01-22T19:23:10.916Z,99272.48
2019-01-22T19:25:44.546Z,99284.02
2019-01-22T19:28:17.446Z,99278.58
2019-01-22T19:30:49.918Z,99278.84
2019-01-22T19:33:23.148Z,99270.30
2019-01-22T19:35:54.860Z,99272.89
2019-01-22T19:38:26.227Z,99270.36
2019-01-22T19:40:57.770Z,99267.18
2019-01-22T19:43:33.586Z,99268.35
2019-01-22T19:46:05.542Z,99254.20
2019-01-22T19:48:38.620Z,99255.52
2019-01-22T19:51:10.281Z,99257.34
2019-01-22T19:53:42.014Z,99252.39
2019-01-22T19:56:16.485Z,99245.78
2019-01-22T19:58:47.994Z,99244.02
2019-01-22T20:01:21.737Z,99243.33
2019-01-22T20:03:53.320Z,99241.98
2019-01-22T20:06:24.873Z,99240.21
2019-01-22T20:08:56.185Z,99237.27
2019-01-22T20:11:27.654Z,99237.92
2019-01-22T20:13:59.027Z,99235.74
2019-01-22T20:16:30.504Z,99237.09
2019-01-22T20:19:02.820Z,99231.20
2019-01-22T20:21:34.169Z,99231.68
2019-01-22T20:24:08.126Z,99232.09
2019-01-22T20:26:41.045Z,99230.67
2019-01-22T20:29:12.380Z,99228.27
2019-01-22T20:31:43.745Z,99226.97
2019-01-22T20:34:14.992Z,99226.14
2019-01-22T20:36:46.354Z,99223.61
2019-01-22T20:39:30.562Z,99220.14
2019-01-22T20:42:02.084Z,99219.67
2019-01-22T20:44:33.393Z,99217.48
2019-01-22T20:47:04.828Z,99225.85
2019-01-22T20:49:36.185Z,99218.02
2019-01-22T20:52:07.710Z,99211.89
2019-01-22T20:54:39.092Z,99215.66
2019-01-22T20:57:10.639Z,99213.78
2019-01-22T20:59:41.931Z,99209.59
2019-01-22T21:02:13.373Z,99207.09
2019-01-22T21:04:44.988Z,99201.14
2019-01-22T21:07:16.378Z,99202.25
2019-01-22T21:09:49.225Z,99198.11
2019-01-22T21:12:20.705Z,99200.89
2019-01-22T21:14:53.174Z,99199.71
2019-01-22T21:17:24.709Z,99192.87
2019-01-22T21:20:01.924Z,99190.28
2019-01-22T21:22:30.817Z,99185.37
2019-01-22T21:25:02.056Z,99185.70
2019-01-22T21:27:33.768Z,99182.06
2019-01-22T21:30:09.581Z,99185.26
2019-01-22T21:32:42.358Z,99185.87
2019-01-22T21:35:13.747Z,99181.95
2019-01-22T21:37:45.124Z,99176.83
2019-01-22T21:40:17.690Z,99174.90
2019-01-22T21:42:51.832Z,99176.91
2019-01-22T21:45:28.922Z,99170.31
2019-01-22T21:48:01.255Z,99170.26
2019-01-22T21:50:32.767Z,99161.48
2019-01-22T21:53:04.541Z,99164.91
2019-01-22T21:55:35.889Z,99160.08
2019-01-22T21:58:08.611Z,99152.72
2019-01-22T22:00:40.265Z,99146.13
2019-01-22T22:03:11.779Z,99145.30
2019-01-22T22:05:43.088Z,99142.70
2019-01-22T22:08:14.459Z,99147.06
2019-01-22T22:10:45.900Z,99146.99
2019-01-22T22:13:17.417Z,99149.00
2019-01-22T22:15:51.517Z,99150.54
2019-01-22T22:18:22.883Z,99145.77
2019-01-22T22:20:54.210Z,99145.83
2019-01-22T22:23:25.571Z,99140.70
2019-01-22T22:25:56.852Z,99136.57
2019-01-22T22:28:28.213Z,99134.75
2019-01-22T22:30:59.575Z,99129.56
2019-01-22T22:33:30.897Z,99130.97
2019-01-22T22:36:02.160Z,99121.38
2019-01-22T22:38:33.495Z,99118.13
2019-01-22T22:41:05.016Z,99112.51
2019-01-22T22:43:36.461Z,99108.81
2019-01-22T22:46:07.972Z,99110.05
2019-01-22T22:48:39.369Z,99107.77
2019-01-22T22:51:10.712Z,99099.74
2019-01-22T22:53:42.164Z,99099.93
2019-01-22T22:56:13.512Z,99093.43
2019-01-22T22:58:44.854Z,99098.56
2019-01-22T23:01:24.011Z,99094.06
2019-01-22T23:03:56.579Z,99085.38
2019-01-22T23:06:28.043Z,99077.77
2019-01-22T23:08:59.511Z,99078.77
2019-01-22T23:11:30.868Z,99075.64
2019-01-22T23:14:02.301Z,99068.23
2019-01-22T23:16:33.768Z,99063.11
2019-01-22T23:19:05.314Z,99055.83
2019-01-22T23:21:37.732Z,99058.48
2019-01-22T23:24:09.270Z,99054.64
2019-01-22T23:26:40.689Z,99056.72
2019-01-22T23:29:12.228Z,99055.97
2019-01-22T23:31:43.624Z,99057.77
2019-01-22T23:34:15.125Z,99050.70
2019-01-22T23:36:46.548Z,99048.78
2019-01-22T23:39:17.861Z,99044.42
2019-01-22T23:41:49.299Z,99041.72
2019-01-22T23:44:20.799Z,99035.36
2019-01-22T23:46:52.259Z,99030.45
2019-01-22T23:49:23.662Z,99032.58
2019-01-22T23:51:55.026Z,99023.81
2019-01-22T23:54:26.462Z,99021.64
2019-01-22T23:56:58.374Z,99016.05
2019-01-22T23:59:29.890Z,99015.23
